Time;durP1;ratioP1;P1;durP2;ratioP2;P2;SDS_P1;SDS_P2;PMS_P1;PMS_P2;Temp;Humidity;BMP_temperature;BMP_pressure;BME280_temperature;BME280_humidity;BME280_pressure;Samples;Min_cycle;Max_cycle;Signal;HPM_P1;HPM_P2
2022/04/26 03:37:05;;;;;;;11.20;6.33;;;;;;;10.23;67.63;100111.25;5372325;32;35275;-69
2022/04/26 03:40:08;;;;;;;11.47;6.40;;;;;;;10.13;67.53;100106.44;5358559;32;44667;-63
2022/04/26 03:43:10;;;;;;;13.20;6.50;;;;;;;10.29;66.78;100113.62;5372456;32;34607;-64
2022/04/26 03:46:12;;;;;;;14.07;6.50;;;;;;;10.46;66.34;100119.94;5359053;32;35413;-69
2022/04/26 03:49:14;;;;;;;18.93;7.77;;;;;;;10.33;67.09;100130.12;5348879;32;35359;-65
2022/04/26 03:52:16;;;;;;;15.77;7.63;;;;;;;10.22;67.58;100129.66;5359498;32;34949;-69
2022/04/26 03:55:20;;;;;;;16.73;8.03;;;;;;;9.93;69.06;100133.50;5358089;32;34629;-69
2022/04/26 03:58:22;;;;;;;15.43;8.57;;;;;;;10.54;66.52;100139.69;5372506;32;34915;-63
2022/04/26 04:01:25;;;;;;;12.07;6.87;;;;;;;10.94;65.03;100134.47;5358467;32;34420;-63
2022/04/26 04:04:27;;;;;;;13.25;7.78;;;;;;;11.35;63.39;100145.78;5372814;32;36699;-69
2022/04/26 04:07:29;;;;;;;15.90;7.50;;;;;;;10.13;68.42;100154.56;5358841;32;36157;-63
2022/04/26 04:10:31;;;;;;;15.30;7.97;;;;;;;10.64;66.77;100160.34;5375727;32;35366;-63
2022/04/26 04:13:34;;;;;;;14.77;8.17;;;;;;;9.99;69.24;100159.50;5359186;32;34842;-64
2022/04/26 04:16:36;;;;;;;14.60;7.83;;;;;;;10.19;68.66;100171.84;5356185;32;44598;-69
2022/04/26 04:19:38;;;;;;;13.77;8.63;;;;;;;10.55;67.38;100164.19;5367560;32;35530;-65
2022/04/26 04:22:40;;;;;;;14.40;8.47;;;;;;;11.04;64.25;100173.47;5356929;32;34230;-64
2022/04/26 04:25:42;;;;;;;14.33;8.13;;;;;;;11.49;63.32;100177.56;5371633;32;34458;-63
2022/04/26 04:28:44;;;;;;;16.00;8.23;;;;;;;10.92;65.38;100186.28;5350306;32;35642;-65
2022/04/26 04:31:46;;;;;;;19.33;8.87;;;;;;;10.85;65.64;100197.06;5369265;32;34949;-71
2022/04/26 04:34:48;;;;;;;16.63;8.77;;;;;;;11.25;64.37;100191.81;5360170;32;34384;-70
2022/04/26 04:37:51;;;;;;;16.93;8.93;;;;;;;10.64;66.32;100200.63;5355088;32;34685;-62
2022/04/26 04:40:53;;;;;;;16.40;8.00;;;;;;;11.13;65.83;100201.12;5374449;32;34115;-63
2022/04/26 04:43:55;;;;;;;18.20;8.07;;;;;;;12.58;59.56;100206.59;5356934;32;34530;-63
2022/04/26 04:47:00;;;;;;;15.27;7.57;;;;;;;13.40;56.26;100207.63;5361323;32;34714;-70
2022/04/26 04:50:02;;;;;;;18.20;8.90;;;;;;;13.89;53.89;100196.16;5352480;32;35052;-70
2022/04/26 04:53:04;;;;;;;12.90;7.57;;;;;;;13.71;54.68;100190.09;5370727;32;34526;-69
2022/04/26 04:56:10;;;;;;;13.80;7.97;;;;;;;14.37;52.03;100195.19;5365002;32;47377;-64
2022/04/26 04:59:12;;;;;;;11.97;7.30;;;;;;;14.76;51.19;100202.59;5359638;32;34365;-64
2022/04/26 05:02:15;;;;;;;12.03;7.83;;;;;;;15.68;48.83;100192.56;5374868;32;35266;-63
2022/04/26 05:05:17;;;;;;;15.67;11.03;;;;;;;15.62;48.65;100203.53;5360286;32;34542;-64
2022/04/26 05:08:19;;;;;;;10.57;6.60;;;;;;;16.30;46.19;100202.72;5373673;32;34564;-64
2022/04/26 05:11:21;;;;;;;11.63;7.03;;;;;;;15.16;49.25;100205.50;5359164;32;35327;-71
2022/04/26 05:14:29;;;;;;;15.27;8.77;;;;;;;16.38;45.77;100207.50;5365759;32;34036;-70
2022/04/26 05:17:31;;;;;;;14.07;8.03;;;;;;;16.08;46.79;100219.16;5367539;32;35745;-64
2022/04/26 05:20:33;;;;;;;12.05;6.87;;;;;;;15.83;47.17;100219.00;5361261;32;34973;-70
2022/04/26 05:26:56;;;;;;;17.43;7.13;;;;;;;16.22;45.75;100223.56;5356438;32;35144;-70
2022/04/26 05:29:58;;;;;;;14.80;7.40;;;;;;;16.78;44.79;100227.81;5371485;32;35248;-70
2022/04/26 05:33:01;;;;;;;10.88;6.70;;;;;;;16.47;45.90;100238.72;5357375;32;34937;-71
2022/04/26 05:36:03;;;;;;;15.00;6.70;;;;;;;18.01;42.93;100230.75;5354560;32;35040;-63
2022/04/26 05:39:05;;;;;;;12.75;6.72;;;;;;;17.84;42.41;100224.00;5380424;32;43576;-72
2022/04/26 05:42:07;;;;;;;14.38;6.90;;;;;;;17.54;43.28;100228.78;5362165;32;35199;-64
2022/04/26 05:45:09;;;;;;;11.12;6.25;;;;;;;18.06;42.42;100228.59;5360270;32;35200;-65
2022/04/26 05:48:13;;;;;;;13.50;6.95;;;;;;;18.28;41.15;100233.19;5331773;32;34848;-60
2022/04/26 05:51:16;;;;;;;11.55;5.95;;;;;;;16.64;45.22;100242.94;5365506;32;34170;-64
2022/04/26 05:54:18;;;;;;;12.02;6.85;;;;;;;17.51;42.90;100243.13;5352316;32;33945;-74
2022/04/26 05:57:20;;;;;;;12.18;5.97;;;;;;;19.08;39.94;100235.25;5341260;32;34188;-71
2022/04/26 06:00:22;;;;;;;15.13;6.85;;;;;;;17.98;42.07;100236.28;5370550;32;35298;-71
2022/04/26 06:03:24;;;;;;;12.65;7.20;;;;;;;19.17;39.34;100230.03;5353656;32;34096;-72
2022/04/26 06:06:27;;;;;;;15.40;6.57;;;;;;;19.71;38.03;100244.53;5368022;32;33957;-70
2022/04/26 06:09:29;;;;;;;11.63;6.97;;;;;;;20.30;36.81;100241.53;5348225;32;34014;-72
2022/04/26 06:12:33;;;;;;;12.18;6.47;;;;;;;19.85;37.24;100228.28;5359315;32;36910;-64
2022/04/26 06:15:36;;;;;;;10.50;5.87;;;;;;;19.72;37.54;100243.56;5349662;32;45941;-63
2022/04/26 06:18:38;;;;;;;10.57;6.43;;;;;;;19.60;37.68;100239.19;5364250;32;34266;-64
2022/04/26 06:21:40;;;;;;;22.83;7.60;;;;;;;21.13;34.82;100237.31;5374189;32;33981;-70
2022/04/26 06:24:42;;;;;;;18.02;7.43;;;;;;;19.89;38.11;100242.19;5364919;32;35527;-65
2022/04/26 06:27:47;;;;;;;11.88;6.05;;;;;;;19.84;37.41;100247.06;5371572;32;33961;-62
2022/04/26 06:30:50;;;;;;;9.45;5.97;;;;;;;20.01;36.88;100249.22;5354803;32;36031;-64
2022/04/26 06:33:52;;;;;;;12.80;5.93;;;;;;;19.89;37.39;100245.72;5367035;32;34048;-62
2022/04/26 06:36:54;;;;;;;11.90;6.18;;;;;;;22.03;33.52;100232.12;5366255;32;35299;-69
2022/04/26 06:39:56;;;;;;;13.75;6.60;;;;;;;21.34;34.84;100246.19;5363255;32;35419;-64
2022/04/26 06:42:59;;;;;;;17.80;6.97;;;;;;;19.07;38.98;100249.53;5370149;32;34280;-63
2022/04/26 06:46:02;;;;;;;12.32;5.78;;;;;;;20.87;34.96;100239.53;5364407;32;34088;-62
2022/04/26 06:49:05;;;;;;;10.20;5.80;;;;;;;19.65;37.03;100239.69;5349542;32;34137;-67
2022/04/26 06:52:07;;;;;;;8.80;4.87;;;;;;;20.13;36.71;100231.38;5346704;32;46115;-63
2022/04/26 06:55:13;;;;;;;8.90;4.78;;;;;;;19.57;37.56;100242.91;5354292;32;34164;-62
2022/04/26 06:58:15;;;;;;;11.50;5.28;;;;;;;21.41;34.02;100228.62;5362662;32;33959;-64
2022/04/26 07:01:17;;;;;;;10.18;5.18;;;;;;;22.65;31.68;100217.53;5343578;32;35210;-64
2022/04/26 07:04:39;;;;;;;7.45;3.92;;;;;;;22.12;31.93;100217.91;5372387;32;46874;-69
2022/04/26 07:07:43;;;;;;;8.25;4.10;;;;;;;21.80;31.66;100239.50;5360527;32;35611;-72
2022/04/26 07:10:46;;;;;;;7.20;4.07;;;;;;;20.70;33.67;100236.44;5368406;32;35199;-77
2022/04/26 07:13:48;;;;;;;;;;;;;;;22.64;31.08;100237.28;5362217;32;34374;-67
2022/04/26 07:16:51;;;;;;;10.23;4.05;;;;;;;21.13;32.18;100234.63;5361182;32;35663;-78
2022/04/26 07:19:53;;;;;;;9.30;3.12;;;;;;;20.70;33.56;100246.28;5376996;32;34862;-64
2022/04/26 07:23:02;;;;;;;6.32;2.90;;;;;;;22.15;30.07;100239.03;5362320;32;35886;-63
2022/04/26 07:26:04;;;;;;;6.93;2.35;;;;;;;25.13;25.74;100242.66;5367323;32;266752;-74
2022/04/26 07:29:08;;;;;;;3.78;2.30;;;;;;;21.67;28.91;100249.56;5363905;32;44474;-65
2022/04/26 07:32:11;;;;;;;7.37;2.80;;;;;;;21.41;30.37;100257.19;5344776;32;34050;-66
2022/04/26 07:35:13;;;;;;;4.60;2.87;;;;;;;22.79;28.59;100245.72;5371529;32;34386;-66
2022/04/26 07:38:15;;;;;;;;;;;;;;;22.54;29.17;100250.69;5364981;32;36085;-66
2022/04/26 07:41:17;;;;;;;8.30;3.20;;;;;;;23.80;27.37;100247.78;5375886;32;34321;-61
2022/04/26 07:44:20;;;;;;;9.05;2.65;;;;;;;23.94;27.04;100254.50;5362298;32;33962;-61
2022/04/26 07:47:24;;;;;;;8.02;2.50;;;;;;;24.64;24.88;100250.25;5361876;32;34077;-62
2022/04/26 07:50:28;;;;;;;5.78;2.10;;;;;;;21.92;28.45;100261.66;5354420;32;34043;-61
2022/04/26 07:53:30;;;;;;;7.72;2.95;;;;;;;25.06;24.27;100258.56;5365059;32;34002;-78
2022/04/26 07:56:32;;;;;;;15.40;8.95;;;;;;;22.78;27.89;100263.63;5370550;32;33932;-65
2022/04/26 07:59:34;;;;;;;;;;;;;;;24.87;24.54;100263.25;5366130;32;34367;-75
2022/04/26 08:02:38;;;;;;;5.57;2.00;;;;;;;23.71;26.18;100265.62;5370919;32;44499;-74
2022/04/26 08:05:40;;;;;;;10.40;2.33;;;;;;;24.37;24.65;100261.09;5363693;32;35395;-66
2022/04/26 08:08:43;;;;;;;7.30;2.95;;;;;;;23.05;26.25;100267.44;5366627;32;34131;-77
2022/04/26 08:11:46;;;;;;;4.15;1.73;;;;;;;24.42;24.06;100256.94;5358747;32;34352;-80
2022/04/26 08:14:48;;;;;;;7.10;1.60;;;;;;;26.63;21.07;100253.75;5363121;32;34156;-69
2022/04/26 08:17:50;;;;;;;;;;;;;;;25.47;22.78;100261.53;5370225;32;34055;-61
2022/04/26 08:20:52;;;;;;;5.90;1.73;;;;;;;22.94;24.84;100268.47;5359244;32;35419;-62
2022/04/26 08:27:30;;;;;;;6.55;2.10;;;;;;;23.32;24.61;100269.41;5361268;32;34244;-72
2022/04/26 08:30:33;;;;;;;3.72;1.75;;;;;;;24.72;23.08;100263.78;5368416;32;35725;-70
2022/04/26 08:33:36;;;;;;;3.17;1.80;;;;;;;26.49;20.51;100257.94;5367708;32;44769;-64
2022/04/26 08:36:38;;;;;;;;;;;;;;;22.48;25.62;100269.97;5364035;32;33987;-75
2022/04/26 08:39:40;;;;;;;2.37;1.40;;;;;;;23.87;23.62;100269.53;5378091;32;34157;-76
2022/04/26 08:42:45;;;;;;;5.53;1.58;;;;;;;23.18;24.67;100278.72;5362228;32;34122;-77
2022/04/26 08:45:50;;;;;;;5.78;2.40;;;;;;;23.71;23.84;100265.62;5376394;32;34759;-63
2022/04/26 08:52:15;;;;;;;3.92;1.90;;;;;;;26.10;20.92;100260.34;5359287;32;45174;-71
2022/04/26 08:55:17;;;;;;;2.35;1.40;;;;;;;25.83;21.73;100261.41;5377997;32;34307;-80
2022/04/26 08:58:21;;;;;;;3.15;1.58;;;;;;;24.75;22.89;100273.38;5361884;32;34198;-67
2022/04/26 09:01:24;;;;;;;2.15;1.10;;;;;;;26.81;20.50;100267.94;5373996;32;34038;-76
2022/04/26 09:04:26;;;;;;;4.37;1.30;;;;;;;27.10;18.98;100272.00;5366908;32;33955;-64
2022/04/26 09:07:34;;;;;;;3.08;1.40;;;;;;;24.46;22.27;100274.44;5362444;32;34447;-63
2022/04/26 09:10:37;;;;;;;4.05;1.40;;;;;;;24.53;22.52;100277.34;5370783;32;44283;-61
2022/04/26 09:13:41;;;;;;;3.22;1.37;;;;;;;24.98;21.80;100271.88;5348145;32;36127;-62
2022/04/26 09:16:43;;;;;;;;;;;;;;;23.44;23.01;100287.87;5373471;32;35137;-64
2022/04/26 09:19:55;;;;;;;1.95;1.25;;;;;;;21.90;25.97;100276.00;5364487;32;34138;-71
2022/04/26 09:23:01;;;;;;;3.58;1.60;;;;;;;20.59;26.95;100284.53;5373478;32;34496;-64
2022/04/26 09:26:09;;;;;;;;;;;;;;;21.99;25.57;100278.84;5351086;32;35413;-64
2022/04/26 09:29:19;;;;;;;3.70;1.48;;;;;;;24.99;21.50;100261.97;5358696;32;44993;-62
2022/04/26 09:32:23;;;;;;;1.83;1.20;;;;;;;25.76;19.61;100260.34;5373135;32;34218;-63
2022/04/26 09:35:32;;;;;;;3.47;1.30;;;;;;;25.01;19.89;100265.38;5363656;32;36874;-69
2022/04/26 09:38:36;;;;;;;3.45;1.10;;;;;;;26.55;18.06;100268.06;5349553;32;35213;-70
2022/04/26 09:41:48;;;;;;;3.95;1.48;;;;;;;26.61;16.89;100262.00;5345125;32;45744;-67
2022/04/26 09:45:06;;;;;;;5.18;1.37;;;;;;;26.59;17.69;100264.00;5365413;32;35555;-65
2022/04/26 09:48:08;;;;;;;7.53;1.33;;;;;;;24.37;19.80;100261.94;5353963;32;44839;-70
2022/04/26 09:51:10;;;;;;;1.30;1.20;;;;;;;26.15;17.88;100261.53;5361471;32;34445;-63
2022/04/26 09:54:12;;;;;;;;;;;;;;;25.41;19.41;100266.69;5374449;32;35171;-73
2022/04/26 09:57:20;;;;;;;4.22;1.65;;;;;;;23.47;21.71;100262.59;5351296;32;34524;-67
2022/04/26 10:00:42;;;;;;;1.70;1.10;;;;;;;27.20;18.00;100251.09;5361661;32;45083;-63
2022/04/26 10:03:46;;;;;;;5.20;1.62;;;;;;;28.33;16.05;100243.63;5363719;32;34001;-65
2022/04/26 10:07:09;;;;;;;1.40;1.30;;;;;;;25.28;19.55;100253.66;5344247;32;33657;-66
2022/04/26 10:10:13;;;;;;;3.40;1.50;;;;;;;23.97;20.66;100255.06;5375910;32;44145;-69
2022/04/26 10:13:32;;;;;;;3.72;1.55;;;;;;;25.59;19.28;100254.88;5362903;32;34573;-70
2022/04/26 10:16:34;;;;;;;2.30;1.55;;;;;;;21.77;23.27;100253.16;5363926;32;35499;-65
2022/04/26 10:19:40;;;;;;;;;;;;;;;25.14;20.24;100249.72;5352091;32;45757;-65
2022/04/26 10:23:01;;;;;;;4.75;1.98;;;;;;;25.00;21.08;100247.56;5355116;32;35560;-64
2022/04/26 10:29:25;;;;;;;5.00;1.42;;;;;;;23.72;22.54;100235.12;5361352;32;35574;-65
2022/04/26 10:32:31;;;;;;;2.67;1.50;;;;;;;27.16;18.73;100228.16;5365944;32;35281;-78
2022/04/26 10:35:35;;;;;;;1.85;1.40;;;;;;;27.80;18.34;100224.44;5370627;32;34113;-72
2022/04/26 10:38:37;;;;;;;1.52;1.40;;;;;;;24.67;20.78;100236.53;5347129;32;44278;-65
2022/04/26 10:41:44;;;;;;;4.65;1.70;;;;;;;29.65;16.56;100221.53;5365153;32;35672;-69
2022/04/26 10:44:47;;;;;;;4.28;1.80;;;;;;;30.64;16.12;100213.72;5363874;32;34234;-62
2022/04/26 10:47:51;;;;;;;4.10;1.58;;;;;;;30.15;16.09;100222.59;5350133;32;33556;-65
2022/04/26 10:50:54;;;;;;;1.80;1.25;;;;;;;30.58;15.25;100213.66;5362064;32;37744;-64
2022/04/26 10:53:56;;;;;;;5.07;1.90;;;;;;;26.66;18.55;100231.84;5361581;32;34039;-61
2022/04/26 10:56:58;;;;;;;7.62;2.00;;;;;;;27.51;18.59;100224.22;5371168;32;34065;-70
2022/04/26 11:00:11;;;;;;;2.72;1.95;;;;;;;28.07;17.85;100223.13;5354636;32;34047;-69
2022/04/26 11:03:16;;;;;;;2.42;1.60;;;;;;;28.32;17.96;100210.34;5371538;32;43524;-63
2022/04/26 11:06:34;;;;;;;3.08;1.90;;;;;;;29.03;17.16;100213.69;5361380;32;35379;-61
2022/04/26 11:09:49;;;;;;;2.37;1.67;;;;;;;27.15;18.79;100216.53;5368036;32;44442;-61
2022/04/26 11:12:52;;;;;;;8.43;2.60;;;;;;;28.30;18.23;100203.44;5370631;32;35229;-62
2022/04/26 11:16:08;;;;;;;3.15;2.00;;;;;;;26.88;19.94;100215.00;5359915;32;35274;-63
2022/04/26 11:19:10;;;;;;;3.08;2.17;;;;;;;30.06;16.65;100203.91;5372974;32;44431;-68
2022/04/26 11:22:13;;;;;;;4.20;2.10;;;;;;;29.28;17.25;100218.88;5358507;32;34063;-70
2022/04/26 11:28:38;;;;;;;6.62;2.12;;;;;;;32.24;14.49;100202.84;5369598;32;44528;-65
2022/04/26 11:31:40;;;;;;;3.65;2.20;;;;;;;25.45;20.99;100227.72;5358971;32;33826;-64
2022/04/26 11:34:46;;;;;;;7.10;2.37;;;;;;;29.17;17.74;100214.75;5376436;32;34021;-68
2022/04/26 11:37:57;;;;;;;3.97;2.30;;;;;;;30.37;16.35;100209.91;5359613;32;35507;-67
2022/04/26 11:41:02;;;;;;;3.17;2.20;;;;;;;31.58;15.43;100210.72;5366897;32;35184;-73
2022/04/26 11:44:05;;;;;;;2.58;2.00;;;;;;;30.85;15.91;100198.47;5357778;32;33914;-65
2022/04/26 11:47:13;;;;;;;5.45;2.40;;;;;;;30.80;16.25;100200.97;5342971;32;46684;-74
2022/04/26 11:50:23;;;;;;;4.72;2.12;;;;;;;28.65;18.88;100201.16;5363475;32;33349;-72
2022/04/26 11:53:28;;;;;;;5.78;2.40;;;;;;;31.96;15.85;100196.69;5360371;32;34561;-74
2022/04/26 11:56:30;;;;;;;4.72;2.50;;;;;;;29.60;18.14;100196.03;5372399;32;34002;-64
2022/04/26 11:59:34;;;;;;;4.35;2.33;;;;;;;32.31;15.89;100198.25;5367074;32;34173;-63
2022/04/26 12:02:37;;;;;;;4.05;2.42;;;;;;;30.08;17.94;100201.84;5366439;32;44316;-66
2022/04/26 12:05:40;;;;;;;3.05;2.25;;;;;;;30.22;18.19;100192.03;5370217;32;34972;-64
2022/04/26 12:08:47;;;;;;;7.12;2.75;;;;;;;31.32;16.91;100194.28;5362866;32;34026;-65
2022/04/26 12:12:00;;;;;;;8.07;2.90;;;;;;;32.91;15.20;100195.63;5373298;32;35275;-64
2022/04/26 12:15:04;;;;;;;4.85;2.67;;;;;;;30.99;16.93;100195.69;5364645;32;35543;-68
2022/04/26 12:18:09;;;;;;;3.78;2.40;;;;;;;28.67;19.93;100204.53;5373132;32;46287;-62
2022/04/26 12:21:11;;;;;;;4.75;2.47;;;;;;;28.33;20.10;100200.38;5369803;32;34238;-62
2022/04/26 12:24:22;;;;;;;7.68;3.22;;;;;;;27.20;21.93;100205.22;5365762;32;34487;-71
2022/04/26 12:27:26;;;;;;;5.18;2.58;;;;;;;29.24;19.20;100198.59;5366601;32;34138;-62
2022/04/26 12:30:30;;;;;;;3.67;2.55;;;;;;;30.35;18.16;100186.75;5365376;32;34274;-65
2022/04/26 12:33:35;;;;;;;4.20;2.50;;;;;;;31.24;17.07;100185.25;5376343;32;34420;-71
2022/04/26 12:36:57;;;;;;;4.00;2.55;;;;;;;30.73;17.26;100184.62;5359500;32;46502;-59
2022/04/26 12:40:10;;;;;;;5.53;2.30;;;;;;;32.36;16.06;100169.66;5365108;32;34925;-64
2022/04/26 12:43:29;;;;;;;3.28;2.30;;;;;;;30.84;17.31;100172.37;5379029;32;45312;-70
2022/04/26 12:50:27;;;;;;;5.32;2.60;;;;;;;27.24;21.02;100168.78;5360382;32;36171;-68
2022/04/26 12:50:28;;;;;;;4.95;3.00;;;;;;;26.14;22.65;100176.34;5360350;32;34272;-67
2022/04/26 12:53:32;;;;;;;8.55;2.90;;;;;;;27.14;21.39;100171.69;5372030;32;35176;-62
2022/04/26 12:56:34;;;;;;;5.05;2.72;;;;;;;25.34;23.55;100170.50;5366155;32;34042;-62
2022/04/26 12:59:38;;;;;;;5.62;2.55;;;;;;;24.84;24.21;100167.62;5378582;32;45336;-63
2022/04/26 13:02:40;;;;;;;5.70;2.62;;;;;;;24.52;24.81;100168.22;5367809;32;34287;-62
2022/04/26 13:05:51;;;;;;;4.60;2.80;;;;;;;24.37;24.90;100164.38;5378109;32;34233;-72
2022/04/26 13:08:53;;;;;;;4.43;2.60;;;;;;;23.62;26.31;100161.88;5367064;32;36013;-63
2022/04/26 13:11:58;;;;;;;5.82;3.00;;;;;;;24.64;24.87;100160.75;5363946;32;35673;-67
2022/04/26 13:15:00;;;;;;;4.53;2.55;;;;;;;24.63;24.73;100162.59;5375602;32;35174;-64
2022/04/26 13:18:03;;;;;;;7.82;3.20;;;;;;;25.09;24.17;100168.66;5366149;32;35372;-68
2022/04/26 13:21:06;;;;;;;3.78;2.45;;;;;;;24.43;25.57;100159.25;5375049;32;44356;-64
2022/04/26 13:24:08;;;;;;;10.18;4.00;;;;;;;24.16;25.68;100162.00;5365543;32;35899;-66
2022/04/26 13:27:12;;;;;;;6.90;2.67;;;;;;;23.54;26.56;100156.38;5374054;32;34534;-68
2022/04/26 13:30:15;;;;;;;4.30;2.60;;;;;;;24.34;25.47;100159.31;5354360;32;34327;-65
2022/04/26 13:33:17;;;;;;;6.78;2.95;;;;;;;23.99;25.66;100163.66;5363542;32;35286;-62
2022/04/26 13:36:20;;;;;;;5.15;2.95;;;;;;;23.95;25.79;100164.94;5371984;32;33894;-61
2022/04/26 13:39:22;;;;;;;3.97;2.37;;;;;;;24.10;25.63;100159.91;5361333;32;34061;-71
2022/04/26 13:42:25;;;;;;;5.85;2.75;;;;;;;22.79;27.12;100168.88;5367682;32;35138;-70
2022/04/26 13:45:27;;;;;;;6.75;3.00;;;;;;;22.52;27.71;100158.91;5357169;32;34288;-68
2022/04/26 13:48:30;;;;;;;5.60;2.60;;;;;;;22.32;28.39;100151.88;5347943;32;33954;-63
2022/04/26 13:51:32;;;;;;;8.77;3.70;;;;;;;23.51;26.58;100156.69;5366806;32;33469;-64
2022/04/26 13:54:42;;;;;;;4.10;2.50;;;;;;;23.04;27.50;100158.56;5362546;32;44338;-71
2022/04/26 13:57:45;;;;;;;5.25;2.67;;;;;;;22.81;27.85;100156.19;5369718;32;34413;-62
2022/04/26 14:00:47;;;;;;;6.28;3.00;;;;;;;23.22;27.49;100156.81;5356352;32;35256;-65
2022/04/26 14:03:49;;;;;;;7.40;3.40;;;;;;;22.69;28.17;100163.53;5367171;32;34023;-62
2022/04/26 14:06:52;;;;;;;9.30;3.00;;;;;;;23.09;27.99;100151.78;5357360;32;34244;-62
2022/04/26 14:09:54;;;;;;;7.40;3.47;;;;;;;22.70;28.41;100159.88;5356397;32;34117;-68
2022/04/26 14:12:57;;;;;;;4.93;3.10;;;;;;;22.57;28.80;100156.66;5365606;32;34081;-66
2022/04/26 14:22:42;;;;;;;6.30;2.92;;;;;;;22.26;29.32;100157.78;5357460;32;46601;-67
2022/04/26 14:25:45;;;;;;;6.20;2.67;;;;;;;21.71;29.93;100147.53;5358756;32;35268;-67
2022/04/26 14:28:47;;;;;;;8.38;3.00;;;;;;;21.60;30.28;100161.03;5361565;32;34034;-64
2022/04/26 14:31:51;;;;;;;6.75;2.72;;;;;;;21.83;30.31;100161.63;5352668;32;34191;-63
2022/04/26 14:34:53;;;;;;;6.65;2.97;;;;;;;22.17;29.45;100160.31;5372574;32;34062;-67
2022/04/26 14:37:56;;;;;;;7.95;2.90;;;;;;;22.54;28.86;100159.63;5360112;32;35319;-64
2022/04/26 14:40:58;;;;;;;6.15;2.60;;;;;;;22.14;30.13;100155.22;5374170;32;35243;-67
2022/04/26 14:44:01;;;;;;;6.50;3.83;;;;;;;22.54;29.40;100158.75;5363529;32;34687;-69
2022/04/26 14:47:03;;;;;;;5.60;2.90;;;;;;;22.53;29.34;100157.91;5358101;32;34499;-65
2022/04/26 14:50:09;;;;;;;;;;;;;;;23.01;28.38;100140.94;5362036;32;45567;-64
2022/04/26 14:53:12;;;;;;;5.68;2.90;;;;;;;22.29;29.53;100157.50;5347044;32;35080;-66
2022/04/26 14:56:34;;;;;;;8.18;3.87;;;;;;;21.76;30.40;100155.97;5372625;32;34771;-67
2022/04/26 14:59:51;;;;;;;7.68;3.15;;;;;;;21.48;30.88;100162.09;5353372;32;34444;-64
2022/04/26 15:02:54;;;;;;;8.70;3.62;;;;;;;22.51;29.30;100164.41;5364691;32;37083;-67
2022/04/26 15:05:59;;;;;;;7.15;3.10;;;;;;;21.92;30.52;100141.25;5369210;32;35313;-64
2022/04/26 15:19:05;;;;;;;9.63;4.37;;;;;;;22.83;28.55;100150.69;5357705;32;42143;-66
2022/04/26 15:22:08;;;;;;;9.65;3.50;;;;;;;22.42;29.00;100152.72;5373698;32;34960;-66
2022/04/26 15:25:10;;;;;;;9.55;3.60;;;;;;;21.46;30.82;100148.87;5358808;32;35427;-66
2022/04/26 15:28:12;;;;;;;8.32;5.28;;;;;;;21.51;30.88;100132.41;5370932;32;35355;-67
2022/04/26 15:31:18;;;;;;;4.80;2.85;;;;;;;22.60;28.98;100126.88;5356624;32;35382;-67
2022/04/26 15:34:20;;;;;;;10.57;2.97;;;;;;;22.67;28.71;100138.75;5369455;32;34198;-64
2022/04/26 15:37:25;;;;;;;5.97;2.75;;;;;;;22.55;29.01;100131.00;5364042;32;35181;-68
2022/04/26 15:40:27;;;;;;;5.35;3.20;;;;;;;23.08;28.33;100134.00;5358463;32;35363;-65
2022/04/26 15:43:30;;;;;;;6.05;2.97;;;;;;;22.14;29.64;100116.91;5367016;32;34944;-61
2022/04/26 15:46:32;;;;;;;6.85;2.90;;;;;;;22.81;28.86;100141.97;5356384;32;34876;-68
2022/04/26 15:49:35;;;;;;;11.27;3.58;;;;;;;22.61;29.16;100133.13;5352805;32;46000;-66
2022/04/26 15:52:39;;;;;;;5.47;2.80;;;;;;;22.76;28.89;100128.97;5357361;32;34077;-65
2022/04/26 15:55:42;;;;;;;8.23;3.15;;;;;;;21.67;30.42;100135.41;5364549;32;34750;-69
2022/04/26 15:58:44;;;;;;;5.60;3.08;;;;;;;22.55;29.07;100128.31;5357061;32;34648;-67
2022/04/26 16:01:46;;;;;;;5.72;3.42;;;;;;;22.65;29.17;100138.03;5363568;32;35091;-64
2022/04/26 16:04:49;;;;;;;10.32;4.53;;;;;;;22.62;28.98;100126.75;5374105;32;34536;-67
2022/04/26 16:07:51;;;;;;;7.53;3.00;;;;;;;21.24;31.43;100138.31;5358395;32;35175;-66
2022/04/26 16:20:56;;;;;;;7.03;3.05;;;;;;;20.64;32.92;100135.47;5373289;32;34643;-67
2022/04/26 16:24:00;;;;;;;5.43;2.92;;;;;;;20.73;32.58;100125.81;5357776;32;34132;-66
2022/04/26 16:27:03;;;;;;;7.10;3.40;;;;;;;21.33;31.46;100127.72;5361973;32;35392;-65
2022/04/26 16:30:06;;;;;;;7.47;3.30;;;;;;;21.16;31.34;100114.94;5354146;32;36592;-67
2022/04/26 16:33:08;;;;;;;4.32;2.80;;;;;;;21.00;31.74;100127.97;5358436;32;35070;-66
2022/04/26 16:36:11;;;;;;;7.18;3.33;;;;;;;21.31;31.17;100123.47;5373859;32;34904;-66
2022/04/26 16:39:13;;;;;;;7.10;3.12;;;;;;;21.00;31.72;100130.62;5357850;32;34243;-64
2022/04/26 16:42:21;;;;;;;5.70;2.97;;;;;;;20.81;32.05;100132.22;5374139;32;35500;-66
2022/04/26 16:45:23;;;;;;;7.50;2.95;;;;;;;20.54;32.40;100130.09;5361130;32;34407;-66
2022/04/26 16:48:25;;;;;;;6.07;3.30;;;;;;;20.21;32.96;100143.53;5352361;32;34812;-63
2022/04/26 16:51:30;;;;;;;5.28;2.90;;;;;;;20.42;32.82;100146.25;5362472;32;34966;-67
2022/04/26 16:54:32;;;;;;;5.03;2.70;;;;;;;20.75;32.15;100146.09;5361167;32;35513;-68
2022/04/26 16:57:35;;;;;;;6.30;2.53;;;;;;;20.36;32.89;100147.62;5374629;32;44000;-66
2022/04/26 17:00:39;;;;;;;13.07;3.12;;;;;;;20.88;32.49;100142.37;5360466;32;35113;-66
2022/04/26 17:03:41;;;;;;;10.15;3.17;;;;;;;20.51;33.10;100129.47;5374943;32;35311;-68
2022/04/26 17:06:44;;;;;;;8.32;3.10;;;;;;;20.49;33.59;100148.31;5360873;32;35243;-64
2022/04/26 17:09:46;;;;;;;7.12;3.15;;;;;;;20.31;33.92;100147.16;5371182;32;35371;-63
2022/04/26 17:12:49;;;;;;;6.07;2.75;;;;;;;20.58;33.71;100156.50;5365485;32;34817;-62
2022/04/26 17:15:51;;;;;;;;;;;;;;;20.88;33.25;100151.25;5361570;32;34690;-62
2022/04/26 17:18:53;;;;;;;6.85;2.97;;;;;;;20.16;34.44;100161.78;5353828;32;33810;-66
2022/04/26 17:21:56;;;;;;;8.05;3.10;;;;;;;20.34;34.26;100156.72;5361283;32;34317;-63
2022/04/26 17:25:13;;;;;;;6.78;3.08;;;;;;;20.04;34.60;100162.78;5375743;32;34625;-65
2022/04/26 17:28:36;;;;;;;8.33;3.20;;;;;;;19.82;35.21;100164.50;5357413;32;35971;-64
2022/04/26 17:31:39;;;;;;;7.20;3.07;;;;;;;19.89;35.17;100168.38;5361066;32;34858;-62
2022/04/26 17:34:42;;;;;;;8.93;3.00;;;;;;;19.31;36.20;100166.81;5376002;32;34285;-62
2022/04/26 17:37:44;;;;;;;6.47;2.83;;;;;;;19.66;35.53;100169.41;5360355;32;35475;-62
2022/04/26 17:40:46;;;;;;;5.30;2.75;;;;;;;19.42;35.77;100173.00;5376654;32;35379;-62
2022/04/26 17:43:48;;;;;;;5.50;3.25;;;;;;;18.99;37.00;100167.53;5359730;32;34951;-63
2022/04/26 17:46:51;;;;;;;6.18;2.80;;;;;;;19.69;35.75;100174.47;5365194;32;34461;-64
2022/04/26 17:50:13;;;;;;;8.23;3.30;;;;;;;19.60;35.89;100168.06;5362740;32;44799;-66
2022/04/26 17:56:39;;;;;;;10.13;3.40;;;;;;;18.97;36.84;100187.25;5375914;32;45083;-61
2022/04/26 17:59:41;;;;;;;10.77;3.40;;;;;;;19.07;36.76;100177.59;5360012;32;36262;-61
2022/04/26 18:02:43;;;;;;;5.50;2.90;;;;;;;19.56;35.78;100181.72;5373471;32;35123;-62
2022/04/26 18:05:45;;;;;;;6.85;3.37;;;;;;;19.67;35.39;100181.75;5364072;32;34839;-66
2022/04/26 18:08:48;;;;;;;6.68;2.67;;;;;;;19.51;35.66;100183.91;5350138;32;35648;-62
2022/04/26 18:11:50;;;;;;;4.85;2.83;;;;;;;19.48;36.04;100188.50;5376717;32;34979;-65
2022/04/26 18:14:58;;;;;;;8.57;2.87;;;;;;;20.00;35.08;100189.69;5370838;32;35082;-64
2022/04/26 18:18:01;;;;;;;6.90;3.03;;;;;;;18.85;37.32;100197.88;5374774;32;35403;-62
2022/04/26 18:21:07;;;;;;;6.47;3.05;;;;;;;19.98;35.43;100199.66;5360388;32;46613;-63
2022/04/26 18:24:09;;;;;;;14.65;4.20;;;;;;;20.08;35.02;100201.53;5366700;32;35202;-61
2022/04/26 18:27:11;;;;;;;5.15;2.83;;;;;;;19.07;37.25;100206.91;5366809;32;35889;-65
2022/04/26 18:30:13;;;;;;;9.77;3.58;;;;;;;19.61;36.12;100203.56;5358025;32;34493;-62
2022/04/26 18:33:15;;;;;;;10.68;3.47;;;;;;;19.23;36.82;100201.22;5371302;32;34855;-63
2022/04/26 18:36:19;;;;;;;7.47;3.30;;;;;;;19.15;37.02;100208.00;5361019;32;35221;-61
2022/04/26 18:39:21;;;;;;;10.30;3.70;;;;;;;19.53;36.24;100213.97;5371303;32;35304;-61
2022/04/26 18:42:24;;;;;;;7.65;3.15;;;;;;;19.38;36.63;100214.19;5360956;32;34822;-63